Time;durP1;ratioP1;P1;durP2;ratioP2;P2;SDS_P1;SDS_P2;PMS_P1;PMS_P2;Temp;Humidity;BMP_temperature;BMP_pressure;BME280_temperature;BME280_humidity;BME280_pressure;Samples;Min_cycle;Max_cycle;Signal;HPM_P1;HPM_P2
2024/03/24 00:00:14;;;;;;;26.23;17.87;;;9.80;99.90;;;;;;4160632;28;20567;-55
2024/03/24 00:02:16;;;;;;;27.30;17.33;;;9.80;99.90;;;;;;4161856;28;20045;-55
2024/03/24 00:04:17;;;;;;;31.20;18.23;;;9.80;99.90;;;;;;4161310;28;20029;-54
2024/03/24 00:06:19;;;;;;;28.73;17.27;;;9.80;99.90;;;;;;4166651;28;20102;-55
2024/03/24 00:08:20;;;;;;;33.87;17.97;;;9.80;99.90;;;;;;4163906;28;20029;-54
2024/03/24 00:10:21;;;;;;;28.53;17.07;;;9.80;99.90;;;;;;4170335;28;20424;-48
2024/03/24 00:12:22;;;;;;;33.77;18.00;;;9.80;99.90;;;;;;4162979;28;20264;-53
2024/03/24 00:14:24;;;;;;;31.90;17.67;;;9.80;99.90;;;;;;4161794;28;20037;-52
2024/03/24 00:16:25;;;;;;;33.97;19.17;;;9.80;99.90;;;;;;4163124;28;20060;-51
2024/03/24 00:18:26;;;;;;;30.53;19.30;;;9.80;99.90;;;;;;4163850;28;20382;-55
2024/03/24 00:20:27;;;;;;;29.93;18.60;;;9.80;99.90;;;;;;4161012;28;20033;-52
2024/03/24 00:22:29;;;;;;;30.33;18.53;;;9.70;99.90;;;;;;4160906;28;20045;-48
2024/03/24 00:24:31;;;;;;;34.93;19.77;;;9.80;99.90;;;;;;4161655;28;20099;-52
2024/03/24 00:26:33;;;;;;;33.07;19.03;;;9.70;99.90;;;;;;4160722;28;20037;-47
2024/03/24 00:28:35;;;;;;;33.63;19.43;;;9.70;99.90;;;;;;4161748;28;20041;-48
2024/03/24 00:30:36;;;;;;;38.00;21.37;;;9.60;99.90;;;;;;4161068;28;20045;-52
2024/03/24 00:32:38;;;;;;;34.40;19.70;;;9.60;99.90;;;;;;4163302;28;20033;-53
2024/03/24 00:34:39;;;;;;;37.70;20.27;;;9.60;99.90;;;;;;4159985;28;20060;-52
2024/03/24 00:36:40;;;;;;;34.93;19.07;;;9.60;99.90;;;;;;4161708;28;20038;-51
2024/03/24 00:38:42;;;;;;;31.80;19.63;;;9.50;99.90;;;;;;4160845;28;20037;-51
2024/03/24 00:40:43;;;;;;;32.57;19.80;;;9.60;99.90;;;;;;4161935;28;20080;-52
2024/03/24 00:42:44;;;;;;;36.77;19.43;;;9.60;99.90;;;;;;4160550;28;20053;-50
2024/03/24 00:44:45;;;;;;;47.17;21.20;;;9.60;99.90;;;;;;4161670;28;20485;-49
2024/03/24 00:46:47;;;;;;;61.33;25.50;;;9.70;99.90;;;;;;4160247;28;20067;-49
2024/03/24 00:48:49;;;;;;;49.23;23.30;;;9.60;99.90;;;;;;4166245;28;20096;-52
2024/03/24 00:50:50;;;;;;;45.13;23.30;;;9.60;99.90;;;;;;4160626;28;20371;-55
2024/03/24 00:52:51;;;;;;;44.33;22.13;;;9.60;99.90;;;;;;4160589;28;20102;-52
2024/03/24 00:54:52;;;;;;;43.63;22.07;;;9.60;99.90;;;;;;4159432;28;20033;-51
2024/03/24 00:56:53;;;;;;;42.77;22.43;;;9.60;99.90;;;;;;4160344;28;20163;-52
2024/03/24 00:58:55;;;;;;;37.50;22.00;;;9.50;99.90;;;;;;4161078;28;20045;-51
2024/03/24 01:00:56;;;;;;;43.63;22.73;;;9.50;99.90;;;;;;4160168;28;20107;-51
2024/03/24 01:02:57;;;;;;;41.70;22.87;;;9.50;99.90;;;;;;4159687;28;20127;-50
2024/03/24 01:05:00;;;;;;;38.07;20.83;;;9.50;99.90;;;;;;4160143;28;20478;-52
2024/03/24 01:07:02;;;;;;;33.90;21.80;;;9.50;99.90;;;;;;4161324;28;20594;-55
2024/03/24 01:09:03;;;;;;;41.73;21.40;;;9.40;99.90;;;;;;4171965;28;20485;-50
2024/03/24 01:11:06;;;;;;;36.17;20.07;;;9.40;99.90;;;;;;4177754;28;20041;-55
2024/03/24 01:13:07;;;;;;;37.90;20.60;;;9.40;99.90;;;;;;4176023;28;20087;-50
2024/03/24 01:15:11;;;;;;;32.43;19.50;;;9.30;99.90;;;;;;4177204;28;20106;-52
2024/03/24 01:17:12;;;;;;;30.67;18.37;;;9.40;99.90;;;;;;4176115;28;20061;-51
2024/03/24 01:19:14;;;;;;;34.37;19.63;;;9.40;99.90;;;;;;4169536;28;20053;-51
2024/03/24 01:21:15;;;;;;;31.57;18.77;;;9.40;99.90;;;;;;4159852;28;20544;-56
2024/03/24 01:23:16;;;;;;;37.33;21.03;;;9.40;99.90;;;;;;4160314;28;20103;-53
2024/03/24 01:25:17;;;;;;;34.73;19.53;;;9.40;99.90;;;;;;4160389;28;20091;-56
2024/03/24 01:27:19;;;;;;;36.77;20.93;;;9.40;99.90;;;;;;4159701;28;20448;-56
2024/03/24 01:29:20;;;;;;;31.93;19.97;;;9.50;99.90;;;;;;4160669;28;20045;-51
2024/03/24 01:31:21;;;;;;;34.23;18.77;;;9.50;99.90;;;;;;4161472;28;20030;-51
2024/03/24 01:33:22;;;;;;;33.97;18.63;;;9.50;99.90;;;;;;4165150;28;20037;-52
2024/03/24 01:35:23;;;;;;;31.70;17.43;;;9.40;99.90;;;;;;4163081;28;20091;-49
2024/03/24 01:37:25;;;;;;;31.00;18.97;;;9.40;99.90;;;;;;4163987;28;20445;-55
2024/03/24 01:39:26;;;;;;;34.93;18.70;;;9.40;99.90;;;;;;4165763;28;20590;-51
2024/03/24 01:41:28;;;;;;;29.30;18.03;;;9.30;99.90;;;;;;4174775;28;20095;-54
2024/03/24 01:43:29;;;;;;;29.60;17.33;;;9.30;99.90;;;;;;4172497;28;20028;-52
2024/03/24 01:45:30;;;;;;;29.93;16.50;;;9.30;99.90;;;;;;4172100;28;20095;-56
2024/03/24 01:47:34;;;;;;;29.50;16.13;;;9.30;99.90;;;;;;4173329;28;20446;-54
2024/03/24 01:49:36;;;;;;;32.27;16.67;;;9.30;99.90;;;;;;4180543;28;20099;-52
2024/03/24 01:51:38;;;;;;;34.77;18.07;;;9.30;99.90;;;;;;4168061;28;20436;-57
2024/03/24 01:53:39;;;;;;;33.07;19.03;;;9.30;99.90;;;;;;4168440;28;20021;-56
2024/03/24 01:55:40;;;;;;;33.67;19.53;;;9.20;99.90;;;;;;4163766;28;20166;-56
2024/03/24 01:57:42;;;;;;;33.00;19.27;;;9.20;99.90;;;;;;4162952;28;20053;-52
2024/03/24 01:59:43;;;;;;;38.60;18.83;;;9.20;99.90;;;;;;4163323;28;20038;-56
2024/03/24 02:01:45;;;;;;;33.87;18.37;;;9.20;99.90;;;;;;4172365;28;20041;-56
2024/03/24 02:03:46;;;;;;;28.67;16.63;;;9.10;99.90;;;;;;4180721;28;20032;-55
2024/03/24 02:05:48;;;;;;;35.87;17.23;;;9.10;99.90;;;;;;4179228;28;20064;-56
2024/03/24 02:07:49;;;;;;;26.80;16.70;;;9.10;99.90;;;;;;4178934;28;20029;-56
2024/03/24 02:09:50;;;;;;;28.57;16.23;;;9.20;99.90;;;;;;4179177;28;20473;-56
2024/03/24 02:11:52;;;;;;;29.60;16.50;;;9.20;99.90;;;;;;4180289;28;20111;-50
2024/03/24 02:14:00;;;;;;;31.57;15.90;;;9.20;99.90;;;;;;4179133;28;20053;-55
2024/03/24 02:16:01;;;;;;;30.23;17.10;;;9.20;99.90;;;;;;4180023;28;20091;-56
2024/03/24 02:18:02;;;;;;;32.90;18.10;;;9.10;99.90;;;;;;4179394;28;20025;-57
2024/03/24 02:20:04;;;;;;;26.63;15.93;;;9.10;99.90;;;;;;4180444;28;20178;-55
2024/03/24 02:22:05;;;;;;;29.77;16.10;;;9.10;99.90;;;;;;4178992;28;20041;-57
2024/03/24 02:24:07;;;;;;;25.80;15.67;;;9.10;99.90;;;;;;4176723;28;20086;-58
2024/03/24 02:26:08;;;;;;;25.37;13.97;;;9.10;99.90;;;;;;4176693;28;20093;-55
2024/03/24 02:28:10;;;;;;;22.63;13.30;;;9.20;99.90;;;;;;4179878;28;20033;-59
2024/03/24 02:30:11;;;;;;;28.93;16.87;;;9.20;99.90;;;;;;4179473;28;20140;-56
2024/03/24 02:32:12;;;;;;;22.93;14.60;;;9.30;99.90;;;;;;4179092;28;20037;-55
2024/03/24 02:34:14;;;;;;;22.30;14.47;;;9.20;99.90;;;;;;4178403;28;20436;-53
2024/03/24 02:36:15;;;;;;;23.97;14.70;;;9.20;99.90;;;;;;4178759;28;20037;-51
2024/03/24 02:38:16;;;;;;;22.47;14.40;;;9.20;99.90;;;;;;4179709;28;20088;-55
2024/03/24 02:40:18;;;;;;;27.13;15.87;;;9.10;99.90;;;;;;4179121;28;20017;-55
2024/03/24 02:42:19;;;;;;;25.07;15.03;;;9.20;99.90;;;;;;4179418;28;20033;-54
2024/03/24 02:44:20;;;;;;;21.07;13.57;;;9.10;99.90;;;;;;4172498;28;20026;-53
2024/03/24 02:46:21;;;;;;;23.57;14.63;;;9.20;99.90;;;;;;4163773;28;20601;-55
2024/03/24 02:48:23;;;;;;;24.60;15.03;;;9.20;99.90;;;;;;4162409;28;20029;-58
2024/03/24 02:50:24;;;;;;;23.80;13.80;;;9.20;99.90;;;;;;4163557;28;20030;-52
2024/03/24 02:52:25;;;;;;;24.47;14.40;;;9.20;99.90;;;;;;4162034;28;20029;-57
2024/03/24 02:54:27;;;;;;;19.13;11.77;;;9.20;99.90;;;;;;4163119;28;20432;-57
2024/03/24 02:56:28;;;;;;;21.10;12.67;;;9.30;99.90;;;;;;4161496;28;20088;-54
2024/03/24 02:58:29;;;;;;;30.20;14.60;;;9.50;99.90;;;;;;4162540;28;20041;-53
2024/03/24 03:00:30;;;;;;;25.67;14.37;;;9.60;99.90;;;;;;4163018;28;20494;-56
2024/03/24 03:02:32;;;;;;;24.60;14.70;;;9.60;99.90;;;;;;4162092;28;20041;-56
2024/03/24 03:04:33;;;;;;;25.27;13.27;;;9.60;99.90;;;;;;4162653;28;20045;-56
2024/03/24 03:06:35;;;;;;;24.47;15.03;;;9.50;99.90;;;;;;4170109;28;20057;-58
2024/03/24 03:08:36;;;;;;;25.03;15.80;;;9.50;99.90;;;;;;4168718;28;20045;-59
2024/03/24 03:10:38;;;;;;;24.17;14.80;;;9.40;99.90;;;;;;4161667;28;20037;-57
2024/03/24 03:12:42;;;;;;;24.03;14.00;;;9.30;99.90;;;;;;4162770;28;20080;-51
2024/03/24 03:14:43;;;;;;;22.83;14.23;;;9.30;99.90;;;;;;4162755;28;20492;-53
2024/03/24 03:16:44;;;;;;;24.17;14.00;;;9.30;99.90;;;;;;4179156;28;20075;-57
2024/03/24 03:18:45;;;;;;;24.03;14.10;;;9.20;99.90;;;;;;4178231;28;20099;-53
2024/03/24 03:20:47;;;;;;;28.20;14.57;;;9.20;99.90;;;;;;4172202;28;20042;-54
2024/03/24 03:22:48;;;;;;;24.03;14.20;;;9.10;99.90;;;;;;4161723;28;20509;-55
2024/03/24 03:24:49;;;;;;;26.13;15.87;;;9.10;99.90;;;;;;4162711;28;20099;-53
2024/03/24 03:26:51;;;;;;;23.90;14.47;;;9.10;99.90;;;;;;4164513;28;20068;-52
2024/03/24 03:28:53;;;;;;;27.57;13.47;;;9.00;99.90;;;;;;4162092;28;20045;-57
2024/03/24 03:30:55;;;;;;;26.10;13.73;;;9.10;99.90;;;;;;4162339;28;20174;-54
2024/03/24 03:32:56;;;;;;;24.20;14.87;;;9.00;99.90;;;;;;4161965;28;20107;-54
2024/03/24 03:34:57;;;;;;;21.37;13.33;;;9.00;99.90;;;;;;4162777;28;20041;-56
2024/03/24 03:36:58;;;;;;;25.47;14.10;;;9.00;99.90;;;;;;4161433;28;20054;-52
2024/03/24 03:38:59;;;;;;;20.00;13.17;;;9.00;99.90;;;;;;4162551;28;20060;-52
2024/03/24 03:41:02;;;;;;;20.97;13.33;;;9.00;99.90;;;;;;4160990;28;20103;-51
2024/03/24 03:43:04;;;;;;;24.53;14.20;;;8.90;99.90;;;;;;4162488;28;20102;-52
2024/03/24 03:45:06;;;;;;;20.67;14.47;;;9.00;99.90;;;;;;4161340;28;20025;-54
2024/03/24 03:47:08;;;;;;;25.13;14.33;;;9.00;99.90;;;;;;4162147;28;20564;-52
2024/03/24 03:49:14;;;;;;;27.07;16.63;;;9.00;99.90;;;;;;4161300;28;20033;-58
2024/03/24 03:51:19;;;;;;;36.37;18.33;;;8.90;99.90;;;;;;4161995;28;20462;-59
2024/03/24 03:53:25;;;;;;;32.47;18.23;;;8.90;99.90;;;;;;4160229;28;20108;-56
2024/03/24 03:55:26;;;;;;;25.40;16.33;;;8.90;99.90;;;;;;4162247;28;20038;-58
2024/03/24 03:57:28;;;;;;;28.30;15.93;;;8.90;99.90;;;;;;4177476;28;20040;-58
2024/03/24 03:59:29;;;;;;;21.60;12.10;;;8.90;99.90;;;;;;4178563;28;20493;-55
2024/03/24 04:01:30;;;;;;;14.53;9.63;;;8.90;99.90;;;;;;4178481;28;20106;-53
2024/03/24 04:03:32;;;;;;;15.67;9.07;;;9.10;99.90;;;;;;4178542;28;20041;-57
2024/03/24 04:05:39;;;;;;;13.50;7.50;;;9.20;99.90;;;;;;4178092;28;20124;-55
2024/03/24 04:07:41;;;;;;;16.97;6.30;;;9.30;99.90;;;;;;4175619;28;20041;-55
2024/03/24 04:09:43;;;;;;;8.23;5.40;;;9.40;99.90;;;;;;4178700;28;20017;-57
2024/03/24 04:11:44;;;;;;;8.53;4.93;;;9.40;99.90;;;;;;4177532;28;20067;-52
2024/03/24 04:13:48;;;;;;;9.03;3.80;;;9.40;99.90;;;;;;4178687;28;20051;-53
2024/03/24 04:15:50;;;;;;;5.97;3.30;;;9.50;99.90;;;;;;4177757;28;20083;-58
2024/03/24 04:17:51;;;;;;;8.67;3.20;;;9.60;99.90;;;;;;4178796;28;20053;-55
2024/03/24 04:19:53;;;;;;;8.33;3.03;;;9.60;99.90;;;;;;4177694;28;20563;-55
2024/03/24 04:21:54;;;;;;;3.00;2.70;;;9.60;99.90;;;;;;4179151;28;20037;-55
2024/03/24 04:23:55;;;;;;;4.97;4.10;;;9.60;99.90;;;;;;4177426;28;20041;-53
2024/03/24 04:25:56;;;;;;;5.97;3.47;;;9.60;99.90;;;;;;4178793;28;20029;-52
2024/03/24 04:27:58;;;;;;;3.97;3.57;;;9.60;99.90;;;;;;4165964;28;20095;-53
2024/03/24 04:30:00;;;;;;;5.83;4.20;;;9.50;99.90;;;;;;4162432;28;20068;-55
2024/03/24 04:32:01;;;;;;;6.47;3.37;;;9.50;99.90;;;;;;4161204;28;20043;-53
2024/03/24 04:34:04;;;;;;;7.93;3.83;;;9.50;99.90;;;;;;4161814;28;20405;-58
2024/03/24 04:36:06;;;;;;;5.63;4.27;;;9.50;99.90;;;;;;4162017;28;20485;-58
2024/03/24 04:38:07;;;;;;;9.97;4.90;;;9.50;99.90;;;;;;4161209;28;20041;-52
2024/03/24 04:40:09;;;;;;;7.43;4.77;;;9.60;99.90;;;;;;4161285;28;20092;-54
2024/03/24 04:42:10;;;;;;;6.20;4.60;;;9.60;99.90;;;;;;4161331;28;20033;-57
2024/03/24 04:44:12;;;;;;;6.03;4.00;;;9.60;99.90;;;;;;4161695;28;20107;-55
2024/03/24 04:46:13;;;;;;;5.30;4.33;;;9.60;99.90;;;;;;4158992;28;20091;-54
2024/03/24 04:48:14;;;;;;;6.90;4.20;;;9.50;99.90;;;;;;4162199;28;20045;-54
2024/03/24 04:50:15;;;;;;;5.00;4.40;;;9.50;99.90;;;;;;4171781;28;20037;-54
2024/03/24 04:52:18;;;;;;;4.50;3.33;;;9.50;99.90;;;;;;4178387;28;20049;-55
2024/03/24 04:54:19;;;;;;;4.83;3.83;;;9.50;99.90;;;;;;4176819;28;20029;-52
2024/03/24 04:56:20;;;;;;;4.83;3.30;;;9.70;99.90;;;;;;4172104;28;20030;-54
2024/03/24 04:58:23;;;;;;;4.73;3.17;;;9.70;99.90;;;;;;4173516;28;20044;-55
2024/03/24 05:00:25;;;;;;;4.40;2.60;;;9.70;99.90;;;;;;4162734;28;20099;-55
2024/03/24 05:02:26;;;;;;;3.83;2.63;;;9.90;99.90;;;;;;4176564;28;20621;-56
2024/03/24 05:04:27;;;;;;;4.50;2.73;;;9.90;99.90;;;;;;4177916;28;20047;-52
2024/03/24 05:06:30;;;;;;;3.80;2.50;;;9.90;99.90;;;;;;4176531;28;20440;-53
2024/03/24 05:08:33;;;;;;;3.47;2.73;;;9.90;99.90;;;;;;4176121;28;20072;-55
2024/03/24 05:10:39;;;;;;;2.13;1.93;;;9.90;99.90;;;;;;4177283;28;20009;-56
2024/03/24 05:12:40;;;;;;;6.53;2.53;;;9.90;99.90;;;;;;4177007;28;20782;-58
2024/03/24 05:14:42;;;;;;;5.27;2.20;;;10.00;99.90;;;;;;4176430;28;20025;-56
2024/03/24 05:16:43;;;;;;;2.07;1.63;;;10.00;99.90;;;;;;4177151;28;20029;-58
2024/03/24 05:18:44;;;;;;;2.77;2.00;;;9.90;99.90;;;;;;4177767;28;20440;-54
2024/03/24 05:20:46;;;;;;;2.63;1.67;;;9.90;99.90;;;;;;4176780;28;20717;-56
2024/03/24 05:22:47;;;;;;;2.27;1.50;;;10.00;99.90;;;;;;4177716;28;20448;-55
2024/03/24 05:24:48;;;;;;;4.40;1.87;;;9.90;99.90;;;;;;4176847;28;20083;-58
2024/03/24 05:26:50;;;;;;;3.50;1.90;;;9.90;99.90;;;;;;4178041;28;20363;-57
2024/03/24 05:28:51;;;;;;;4.73;1.90;;;9.90;99.90;;;;;;4175960;28;20064;-56
2024/03/24 05:30:52;;;;;;;2.47;2.10;;;9.90;99.90;;;;;;4178201;28;20033;-56
2024/03/24 05:32:54;;;;;;;2.90;1.80;;;10.10;99.90;;;;;;4176385;28;20095;-53
2024/03/24 05:34:55;;;;;;;1.90;1.67;;;10.50;99.90;;;;;;4177638;28;20044;-53
2024/03/24 05:36:56;;;;;;;1.93;1.63;;;11.20;99.90;;;;;;4172607;28;20079;-54
2024/03/24 05:38:58;;;;;;;4.27;1.80;;;11.90;99.90;;;;;;4161424;28;20087;-52
2024/03/24 05:41:00;;;;;;;4.90;1.70;;;12.60;99.90;;;;;;4160141;28;20049;-55
2024/03/24 05:43:02;;;;;;;3.73;1.90;;;12.90;99.90;;;;;;4160595;28;20107;-55
2024/03/24 05:45:03;;;;;;;5.03;1.80;;;13.40;99.90;;;;;;4160264;28;20042;-57
2024/03/24 05:47:04;;;;;;;14.50;6.13;;;13.60;99.90;;;;;;4160570;28;20033;-55
2024/03/24 05:49:06;;;;;;;4.57;1.87;;;13.30;99.90;;;;;;4161017;28;20049;-54
2024/03/24 05:51:07;;;;;;;0.80;0.80;;;12.60;99.90;;;;;;4160108;28;20425;-55
2024/03/24 05:53:08;;;;;;;2.17;0.50;;;12.60;99.90;;;;;;4160505;28;20034;-56
2024/03/24 05:55:09;;;;;;;2.00;0.90;;;12.50;99.90;;;;;;4158534;28;20509;-56
2024/03/24 05:57:11;;;;;;;1.53;0.70;;;12.40;99.90;;;;;;4160899;28;20481;-56
2024/03/24 05:59:12;;;;;;;1.67;0.70;;;12.70;99.90;;;;;;4159940;28;20112;-56
2024/03/24 06:01:13;;;;;;;1.27;0.67;;;13.00;99.90;;;;;;4167514;28;20045;-52
2024/03/24 06:03:14;;;;;;;2.43;0.80;;;13.00;99.90;;;;;;4175998;28;20045;-56
2024/03/24 06:05:16;;;;;;;3.43;0.83;;;13.20;99.90;;;;;;4177008;28;20098;-51
2024/03/24 06:07:17;;;;;;;2.27;0.90;;;13.60;99.90;;;;;;4175755;28;20091;-54
2024/03/24 06:09:18;;;;;;;1.33;0.90;;;13.90;99.90;;;;;;4177119;28;20079;-56
2024/03/24 06:11:20;;;;;;;0.93;0.70;;;14.10;99.90;;;;;;4176153;28;20075;-52
2024/03/24 06:13:21;;;;;;;1.23;0.40;;;14.40;99.90;;;;;;4176580;28;20103;-54
2024/03/24 06:15:22;;;;;;;2.67;0.60;;;14.40;99.90;;;;;;4176151;28;20041;-50
2024/03/24 06:17:23;;;;;;;2.77;0.57;;;14.20;99.90;;;;;;4177216;28;20052;-50
2024/03/24 06:19:25;;;;;;;1.67;0.30;;;14.10;99.90;;;;;;4179797;28;20037;-51
2024/03/24 06:21:26;;;;;;;1.77;0.43;;;13.80;99.90;;;;;;4178965;28;20536;-52
2024/03/24 06:23:27;;;;;;;1.07;0.47;;;13.80;99.90;;;;;;4180277;28;20029;-55
2024/03/24 06:25:29;;;;;;;0.93;0.60;;;14.00;99.90;;;;;;4179169;28;20063;-55
2024/03/24 06:27:31;;;;;;;1.57;0.90;;;14.10;99.90;;;;;;4180048;28;20098;-53
2024/03/24 06:29:32;;;;;;;1.60;0.63;;;14.50;99.80;;;;;;4178619;28;20055;-53
2024/03/24 06:31:33;;;;;;;5.67;1.23;;;14.40;99.50;;;;;;4179862;28;20086;-56
2024/03/24 06:33:35;;;;;;;5.37;1.10;;;13.80;99.80;;;;;;4177966;28;20029;-50
2024/03/24 06:35:37;;;;;;;0.80;0.53;;;14.00;99.90;;;;;;4180002;28;20029;-54
2024/03/24 06:37:39;;;;;;;9.13;1.93;;;14.40;99.90;;;;;;4178225;28;20499;-55
2024/03/24 06:39:40;;;;;;;1.60;0.67;;;14.80;99.50;;;;;;4178691;28;20048;-56
2024/03/24 06:41:43;;;;;;;0.80;0.40;;;15.10;99.20;;;;;;4178092;28;20075;-55
2024/03/24 06:43:44;;;;;;;1.03;0.40;;;15.00;99.10;;;;;;4162901;28;20041;-55
2024/03/24 06:45:48;;;;;;;0.83;0.67;;;14.60;99.00;;;;;;4162256;28;20466;-54
2024/03/24 06:47:50;;;;;;;1.87;0.70;;;14.20;99.00;;;;;;4161996;28;20477;-51
2024/03/24 06:49:51;;;;;;;0.40;0.40;;;13.20;99.70;;;;;;4162270;28;20474;-54
2024/03/24 06:51:52;;;;;;;3.40;0.90;;;12.90;99.90;;;;;;4162330;28;20049;-53
2024/03/24 06:53:53;;;;;;;2.57;0.60;;;12.40;99.90;;;;;;4163037;28;20091;-50
2024/03/24 06:55:55;;;;;;;3.47;0.70;;;12.20;99.90;;;;;;4162228;28;20057;-53
2024/03/24 06:57:56;;;;;;;1.37;0.67;;;12.40;99.90;;;;;;4162646;28;20057;-55
2024/03/24 06:59:57;;;;;;;0.97;0.50;;;12.50;99.90;;;;;;4161641;28;20434;-56
2024/03/24 07:01:58;;;;;;;8.33;0.70;;;12.50;99.90;;;;;;4163637;28;20049;-56
2024/03/24 07:04:00;;;;;;;2.27;0.67;;;12.50;99.90;;;;;;4160400;28;20095;-53
2024/03/24 07:06:02;;;;;;;2.33;0.50;;;12.30;99.90;;;;;;4162796;28;20026;-55
2024/03/24 07:08:03;;;;;;;0.67;0.43;;;12.40;99.90;;;;;;4162281;28;20478;-58
2024/03/24 07:10:06;;;;;;;0.60;0.43;;;12.70;99.90;;;;;;4162825;28;20100;-52
2024/03/24 07:12:07;;;;;;;1.17;0.70;;;12.90;99.90;;;;;;4168409;28;20183;-54
2024/03/24 07:14:08;;;;;;;7.07;1.77;;;12.70;99.90;;;;;;4175730;28;20071;-52
2024/03/24 07:16:10;;;;;;;3.63;0.87;;;12.70;99.90;;;;;;4178463;28;20481;-58
2024/03/24 07:18:11;;;;;;;3.77;1.03;;;12.00;99.90;;;;;;4178802;28;20095;-57
2024/03/24 07:20:12;;;;;;;2.13;0.60;;;11.60;99.90;;;;;;4166931;28;20335;-51
2024/03/24 07:22:14;;;;;;;1.10;0.70;;;11.60;99.90;;;;;;4166883;28;20095;-54
2024/03/24 07:24:16;;;;;;;1.90;0.70;;;11.60;99.90;;;;;;4178251;28;20075;-50
2024/03/24 07:26:18;;;;;;;1.57;0.80;;;11.60;99.90;;;;;;4176968;28;20490;-57
2024/03/24 07:28:19;;;;;;;1.97;0.70;;;11.60;99.90;;;;;;4178361;28;20032;-56
2024/03/24 07:30:20;;;;;;;3.33;0.80;;;11.70;99.90;;;;;;4178220;28;20040;-53
2024/03/24 07:32:22;;;;;;;1.23;0.80;;;11.70;99.90;;;;;;4179749;28;20041;-58
2024/03/24 07:34:23;;;;;;;2.10;1.00;;;11.90;99.90;;;;;;4178149;28;20044;-55
2024/03/24 07:36:24;;;;;;;1.80;1.33;;;11.60;99.90;;;;;;4178796;28;20427;-56
2024/03/24 07:38:26;;;;;;;1.23;0.80;;;11.70;99.90;;;;;;4177541;28;20045;-56
2024/03/24 07:40:27;;;;;;;1.90;0.90;;;11.90;99.90;;;;;;4179413;28;20083;-53
2024/03/24 07:42:28;;;;;;;3.40;0.93;;;12.00;99.90;;;;;;4176099;28;20040;-53
2024/03/24 07:44:30;;;;;;;3.70;1.13;;;11.70;99.90;;;;;;4178844;28;20045;-61
2024/03/24 07:46:31;;;;;;;6.40;1.23;;;11.50;99.90;;;;;;4177724;28;20037;-57
2024/03/24 07:48:33;;;;;;;8.67;1.67;;;11.10;99.90;;;;;;4178360;28;20489;-57
2024/03/24 07:50:34;;;;;;;1.53;0.80;;;10.60;99.90;;;;;;4177998;28;20362;-56
2024/03/24 07:52:35;;;;;;;7.57;1.30;;;10.60;99.90;;;;;;4177977;28;20099;-60
2024/03/24 07:54:36;;;;;;;3.37;1.47;;;10.30;99.90;;;;;;4177765;28;20040;-52
2024/03/24 07:56:38;;;;;;;4.87;2.07;;;10.00;99.90;;;;;;4177009;28;20049;-55
2024/03/24 07:58:39;;;;;;;10.83;1.23;;;10.00;99.90;;;;;;4178640;28;20379;-54
2024/03/24 08:00:40;;;;;;;2.77;1.13;;;9.80;99.90;;;;;;4176962;28;20040;-55
2024/03/24 08:02:41;;;;;;;9.80;1.50;;;9.70;99.90;;;;;;4178479;28;20470;-60
2024/03/24 08:04:43;;;;;;;3.00;1.40;;;9.40;99.90;;;;;;4177465;28;20025;-57
2024/03/24 08:06:44;;;;;;;4.33;1.60;;;9.20;99.90;;;;;;4176956;28;20045;-57
2024/03/24 08:08:45;;;;;;;4.63;1.70;;;9.00;99.90;;;;;;4176785;28;20812;-55
2024/03/24 08:10:46;;;;;;;2.40;1.07;;;8.80;99.90;;;;;;4161506;28;20041;-55
2024/03/24 08:12:48;;;;;;;2.33;1.23;;;8.50;99.90;;;;;;4160212;28;20091;-56
2024/03/24 08:14:49;;;;;;;6.13;1.40;;;8.30;99.90;;;;;;4161697;28;20470;-59
2024/03/24 08:16:50;;;;;;;1.63;0.90;;;8.10;99.90;;;;;;4160745;28;20466;-57
2024/03/24 08:18:51;;;;;;;3.13;1.13;;;8.00;99.90;;;;;;4161453;28;20037;-60
2024/03/24 08:20:53;;;;;;;3.63;1.10;;;7.90;99.90;;;;;;4160812;28;20042;-57
2024/03/24 08:22:54;;;;;;;1.10;1.00;;;7.80;99.90;;;;;;4171600;28;20158;-59
2024/03/24 08:24:56;;;;;;;1.73;1.33;;;7.70;99.90;;;;;;4177402;28;20094;-55
2024/03/24 08:26:57;;;;;;;1.20;1.10;;;7.70;99.90;;;;;;4176717;28;20456;-60
2024/03/24 08:28:58;;;;;;;2.27;0.93;;;7.60;99.90;;;;;;4178056;28;20025;-58
2024/03/24 08:31:00;;;;;;;1.63;1.13;;;7.70;99.90;;;;;;4176374;28;20098;-61
2024/03/24 08:33:01;;;;;;;1.77;0.90;;;7.70;99.90;;;;;;4177705;28;20041;-55
2024/03/24 08:35:04;;;;;;;1.93;0.80;;;7.70;99.90;;;;;;4176523;28;20049;-59
2024/03/24 08:37:05;;;;;;;2.67;0.80;;;7.70;99.90;;;;;;4177565;28;20094;-60
2024/03/24 08:39:07;;;;;;;3.70;1.60;;;7.80;99.90;;;;;;4176494;28;20140;-54
2024/03/24 08:41:12;;;;;;;2.07;1.60;;;7.80;99.90;;;;;;4174264;28;20040;-55
2024/03/24 08:43:13;;;;;;;1.83;1.10;;;7.90;99.90;;;;;;4174871;28;20136;-60
2024/03/24 08:45:15;;;;;;;2.90;1.20;;;8.00;99.90;;;;;;4177517;28;20428;-60
2024/03/24 08:47:16;;;;;;;1.87;1.03;;;8.10;99.90;;;;;;4176461;28;20174;-58
2024/03/24 08:49:18;;;;;;;1.50;0.70;;;8.20;99.90;;;;;;4177665;28;20079;-57
2024/03/24 08:51:19;;;;;;;1.67;0.60;;;8.20;99.90;;;;;;4176599;28;20071;-57
2024/03/24 08:53:20;;;;;;;0.83;0.50;;;8.30;99.90;;;;;;4175263;28;20052;-58
2024/03/24 08:55:25;;;;;;;1.77;0.60;;;8.10;99.90;;;;;;4176834;28;20427;-59
2024/03/24 08:57:26;;;;;;;0.83;0.50;;;8.00;99.90;;;;;;4176977;28;20079;-57
2024/03/24 08:59:27;;;;;;;0.90;0.47;;;7.70;99.90;;;;;;4164736;28;20052;-54
2024/03/24 09:01:29;;;;;;;1.40;0.77;;;7.50;99.90;;;;;;4175907;28;20143;-60
2024/03/24 09:03:30;;;;;;;2.70;1.60;;;7.40;99.90;;;;;;4175001;28;20085;-59
2024/03/24 09:05:33;;;;;;;0.50;0.30;;;7.40;99.90;;;;;;4162737;28;20029;-56
2024/03/24 09:07:34;;;;;;;2.00;0.70;;;7.30;99.90;;;;;;4171601;28;20118;-58
2024/03/24 09:09:35;;;;;;;2.53;0.80;;;7.20;99.90;;;;;;4166488;28;20071;-59
2024/03/24 09:11:36;;;;;;;7.73;3.07;;;7.10;99.90;;;;;;4177365;28;20063;-56
2024/03/24 09:13:38;;;;;;;9.70;6.00;;;7.00;99.90;;;;;;4169459;28;20095;-58
2024/03/24 09:15:39;;;;;;;2.73;1.37;;;7.00;99.90;;;;;;4177063;28;20013;-57
2024/03/24 09:17:40;;;;;;;1.00;0.70;;;7.10;99.90;;;;;;4175776;28;20033;-59
2024/03/24 09:19:41;;;;;;;1.37;0.70;;;7.10;99.90;;;;;;4177544;28;20428;-60
2024/03/24 09:21:43;;;;;;;3.10;1.67;;;7.00;99.90;;;;;;4176763;28;20102;-59
2024/03/24 09:23:44;;;;;;;0.60;0.50;;;6.90;99.90;;;;;;4177139;28;20448;-58
2024/03/24 09:25:46;;;;;;;0.73;0.50;;;6.80;99.90;;;;;;4182997;28;20126;-58
2024/03/24 09:27:50;;;;;;;1.37;0.40;;;6.70;99.90;;;;;;4192860;28;20457;-58
2024/03/24 09:29:52;;;;;;;0.67;0.37;;;6.60;99.90;;;;;;4193246;28;20106;-56
2024/03/24 09:31:54;;;;;;;3.53;1.30;;;6.50;99.90;;;;;;4193423;28;20033;-54
2024/03/24 09:33:55;;;;;;;1.60;0.40;;;6.50;99.90;;;;;;4193759;28;20028;-58
2024/03/24 09:36:03;;;;;;;0.60;0.20;;;6.40;99.90;;;;;;4190370;28;20090;-58
2024/03/24 09:38:04;;;;;;;2.63;0.90;;;6.40;99.90;;;;;;4160728;28;20061;-57
2024/03/24 09:40:05;;;;;;;1.30;0.50;;;6.50;99.90;;;;;;4160300;28;20540;-59
2024/03/24 09:42:11;;;;;;;1.17;0.20;;;6.40;99.90;;;;;;4160921;28;20398;-53
2024/03/24 09:44:14;;;;;;;0.33;0.20;;;6.40;99.90;;;;;;4159497;28;20033;-57
2024/03/24 09:46:15;;;;;;;0.97;0.40;;;6.50;99.90;;;;;;4160397;28;20648;-57
2024/03/24 09:48:16;;;;;;;1.90;0.40;;;6.40;99.90;;;;;;4159639;28;20026;-58
2024/03/24 09:50:20;;;;;;;2.10;0.30;;;6.50;99.90;;;;;;4160987;28;20090;-57
2024/03/24 09:52:23;;;;;;;0.77;0.30;;;6.50;99.90;;;;;;4160463;28;20084;-57
2024/03/24 09:54:24;;;;;;;0.70;0.20;;;6.50;99.90;;;;;;4168202;28;20033;-60
2024/03/24 09:56:26;;;;;;;0.40;0.20;;;6.60;99.90;;;;;;4178677;28;20107;-59
2024/03/24 09:58:28;;;;;;;2.77;0.30;;;6.60;99.90;;;;;;4178847;28;20045;-61
2024/03/24 10:00:30;;;;;;;1.07;0.37;;;6.60;99.90;;;;;;4162229;28;20111;-59
2024/03/24 10:02:31;;;;;;;0.90;0.20;;;6.70;99.90;;;;;;4163536;28;20037;-57
2024/03/24 10:04:33;;;;;;;1.33;0.67;;;6.70;99.90;;;;;;4163138;28;20450;-53
2024/03/24 10:06:35;;;;;;;2.80;0.33;;;6.70;99.90;;;;;;4165511;28;20087;-59
2024/03/24 10:08:36;;;;;;;2.30;0.70;;;6.70;99.90;;;;;;4164993;28;20091;-57
2024/03/24 10:10:37;;;;;;;1.70;0.30;;;6.70;99.90;;;;;;4177784;28;20090;-55
2024/03/24 10:12:39;;;;;;;0.43;0.10;;;6.70;99.90;;;;;;4179922;28;20040;-52
2024/03/24 10:14:40;;;;;;;2.27;0.30;;;6.70;99.90;;;;;;4179463;28;20500;-58
2024/03/24 10:16:41;;;;;;;0.60;0.50;;;6.80;99.90;;;;;;4171209;28;20098;-59
2024/03/24 10:18:43;;;;;;;3.07;0.40;;;6.90;99.90;;;;;;4178490;28;20044;-60
2024/03/24 10:20:45;;;;;;;2.23;0.60;;;6.90;99.90;;;;;;4180327;28;20122;-51
2024/03/24 10:22:56;;;;;;;1.00;0.90;;;7.00;99.90;;;;;;4175293;28;20033;-57
2024/03/24 10:24:58;;;;;;;2.33;0.80;;;7.00;99.90;;;;;;4178600;28;20396;-58
2024/03/24 10:27:00;;;;;;;0.97;0.50;;;7.10;99.90;;;;;;4179494;28;20067;-56
2024/03/24 10:29:06;;;;;;;1.50;0.60;;;7.20;99.90;;;;;;4180687;28;20095;-59
2024/03/24 10:31:09;;;;;;;1.57;0.57;;;7.30;99.90;;;;;;4179450;28;20094;-59